sensor_id;sensor_type;location;lat;lon;timestamp;temperature;humidity
12841;DHT22;6487;48.626;12.486;2023-02-15T00:00:15;-0.20;99.90
12841;DHT22;6487;48.626;12.486;2023-02-15T00:02:44;-0.10;99.90
12841;DHT22;6487;48.626;12.486;2023-02-15T00:05:12;0.00;99.90
12841;DHT22;6487;48.626;12.486;2023-02-15T00:07:42;0.10;99.90
12841;DHT22;6487;48.626;12.486;2023-02-15T00:10:10;0.20;99.90
12841;DHT22;6487;48.626;12.486;2023-02-15T00:12:38;0.20;99.90
12841;DHT22;6487;48.626;12.486;2023-02-15T00:15:18;0.10;99.90
12841;DHT22;6487;48.626;12.486;2023-02-15T00:17:47;0.10;99.90
12841;DHT22;6487;48.626;12.486;2023-02-15T00:20:15;0.00;99.90
12841;DHT22;6487;48.626;12.486;2023-02-15T00:22:46;0.00;99.90
12841;DHT22;6487;48.626;12.486;2023-02-15T00:25:14;0.00;99.90
12841;DHT22;6487;48.626;12.486;2023-02-15T00:27:43;-0.10;99.90
12841;DHT22;6487;48.626;12.486;2023-02-15T00:30:12;0.00;99.90
12841;DHT22;6487;48.626;12.486;2023-02-15T00:32:40;0.10;99.90
12841;DHT22;6487;48.626;12.486;2023-02-15T00:35:08;0.20;99.90
12841;DHT22;6487;48.626;12.486;2023-02-15T00:37:37;0.30;99.90
12841;DHT22;6487;48.626;12.486;2023-02-15T00:40:08;0.30;99.90
12841;DHT22;6487;48.626;12.486;2023-02-15T00:42:37;0.30;99.90
12841;DHT22;6487;48.626;12.486;2023-02-15T00:45:06;0.60;99.90
12841;DHT22;6487;48.626;12.486;2023-02-15T00:47:35;0.20;99.90
12841;DHT22;6487;48.626;12.486;2023-02-15T00:50:03;0.30;99.90
12841;DHT22;6487;48.626;12.486;2023-02-15T00:52:33;0.20;99.90
12841;DHT22;6487;48.626;12.486;2023-02-15T00:55:01;0.00;99.90
12841;DHT22;6487;48.626;12.486;2023-02-15T00:57:30;-0.10;99.90
12841;DHT22;6487;48.626;12.486;2023-02-15T00:59:59;-0.20;99.90
12841;DHT22;6487;48.626;12.486;2023-02-15T01:02:27;-0.30;99.90
12841;DHT22;6487;48.626;12.486;2023-02-15T01:04:56;-0.30;99.90
12841;DHT22;6487;48.626;12.486;2023-02-15T01:07:24;-0.20;99.90
12841;DHT22;6487;48.626;12.486;2023-02-15T01:09:52;-0.30;99.90
12841;DHT22;6487;48.626;12.486;2023-02-15T01:12:20;-0.20;99.90
12841;DHT22;6487;48.626;12.486;2023-02-15T01:14:50;0.00;99.90
12841;DHT22;6487;48.626;12.486;2023-02-15T01:17:18;0.00;99.90
12841;DHT22;6487;48.626;12.486;2023-02-15T01:19:46;0.10;99.90
12841;DHT22;6487;48.626;12.486;2023-02-15T01:22:15;0.10;99.90
12841;DHT22;6487;48.626;12.486;2023-02-15T01:24:43;0.20;99.90
12841;DHT22;6487;48.626;12.486;2023-02-15T01:27:12;0.20;99.90
12841;DHT22;6487;48.626;12.486;2023-02-15T01:29:40;0.20;99.90
12841;DHT22;6487;48.626;12.486;2023-02-15T01:32:09;0.00;99.90
12841;DHT22;6487;48.626;12.486;2023-02-15T01:34:38;-0.40;99.90
12841;DHT22;6487;48.626;12.486;2023-02-15T01:37:06;-0.30;99.90
12841;DHT22;6487;48.626;12.486;2023-02-15T01:39:34;-0.20;99.90
12841;DHT22;6487;48.626;12.486;2023-02-15T01:42:03;-0.20;99.90
12841;DHT22;6487;48.626;12.486;2023-02-15T01:44:55;-0.10;99.90
12841;DHT22;6487;48.626;12.486;2023-02-15T01:47:32;0.00;99.90
12841;DHT22;6487;48.626;12.486;2023-02-15T01:50:08;-0.10;99.90
12841;DHT22;6487;48.626;12.486;2023-02-15T01:52:42;-0.10;99.90
12841;DHT22;6487;48.626;12.486;2023-02-15T01:55:14;0.00;99.90
12841;DHT22;6487;48.626;12.486;2023-02-15T01:57:45;0.10;99.90
12841;DHT22;6487;48.626;12.486;2023-02-15T02:00:15;0.10;99.90
12841;DHT22;6487;48.626;12.486;2023-02-15T02:02:47;0.10;99.90
12841;DHT22;6487;48.626;12.486;2023-02-15T02:05:17;0.00;99.90
12841;DHT22;6487;48.626;12.486;2023-02-15T02:07:46;0.10;99.90
12841;DHT22;6487;48.626;12.486;2023-02-15T02:10:17;-0.10;99.90
12841;DHT22;6487;48.626;12.486;2023-02-15T02:12:49;0.00;99.90
12841;DHT22;6487;48.626;12.486;2023-02-15T02:15:24;-0.10;99.90
12841;DHT22;6487;48.626;12.486;2023-02-15T02:18:08;0.00;99.90
12841;DHT22;6487;48.626;12.486;2023-02-15T02:21:13;0.10;99.90
12841;DHT22;6487;48.626;12.486;2023-02-15T02:27:26;0.20;99.90
12841;DHT22;6487;48.626;12.486;2023-02-15T02:33:43;0.00;99.90
12841;DHT22;6487;48.626;12.486;2023-02-15T02:36:24;-0.10;99.90
12841;DHT22;6487;48.626;12.486;2023-02-15T02:39:13;0.10;99.90
12841;DHT22;6487;48.626;12.486;2023-02-15T02:41:55;0.00;99.90
12841;DHT22;6487;48.626;12.486;2023-02-15T02:44:31;0.10;99.90
12841;DHT22;6487;48.626;12.486;2023-02-15T02:47:08;0.00;99.90
12841;DHT22;6487;48.626;12.486;2023-02-15T02:49:41;0.00;99.90
12841;DHT22;6487;48.626;12.486;2023-02-15T02:52:35;-0.10;99.90
12841;DHT22;6487;48.626;12.486;2023-02-15T02:55:11;-0.10;99.90
12841;DHT22;6487;48.626;12.486;2023-02-15T02:57:47;0.00;99.90
12841;DHT22;6487;48.626;12.486;2023-02-15T03:00:21;0.00;99.90
12841;DHT22;6487;48.626;12.486;2023-02-15T03:02:54;0.00;99.90
12841;DHT22;6487;48.626;12.486;2023-02-15T03:05:27;0.00;99.90
12841;DHT22;6487;48.626;12.486;2023-02-15T03:07:58;0.10;99.90
12841;DHT22;6487;48.626;12.486;2023-02-15T03:10:34;0.00;99.90
12841;DHT22;6487;48.626;12.486;2023-02-15T03:13:03;0.10;99.90
12841;DHT22;6487;48.626;12.486;2023-02-15T03:15:34;-0.10;99.90
12841;DHT22;6487;48.626;12.486;2023-02-15T03:18:25;0.10;99.90
12841;DHT22;6487;48.626;12.486;2023-02-15T03:21:00;0.10;99.90
12841;DHT22;6487;48.626;12.486;2023-02-15T03:23:30;0.20;99.90
12841;DHT22;6487;48.626;12.486;2023-02-15T03:26:02;0.10;99.90
12841;DHT22;6487;48.626;12.486;2023-02-15T03:28:35;0.10;99.90
12841;DHT22;6487;48.626;12.486;2023-02-15T03:31:06;0.10;99.90
12841;DHT22;6487;48.626;12.486;2023-02-15T03:33:39;0.20;99.90
12841;DHT22;6487;48.626;12.486;2023-02-15T03:36:15;0.20;99.90
12841;DHT22;6487;48.626;12.486;2023-02-15T03:38:51;0.20;99.90
12841;DHT22;6487;48.626;12.486;2023-02-15T03:41:28;0.10;99.90
12841;DHT22;6487;48.626;12.486;2023-02-15T03:44:06;0.10;99.90
12841;DHT22;6487;48.626;12.486;2023-02-15T03:46:41;0.20;99.90
12841;DHT22;6487;48.626;12.486;2023-02-15T03:49:17;0.20;99.90
12841;DHT22;6487;48.626;12.486;2023-02-15T03:51:52;0.20;99.90
12841;DHT22;6487;48.626;12.486;2023-02-15T03:54:25;0.20;99.90
12841;DHT22;6487;48.626;12.486;2023-02-15T03:57:12;0.20;99.90
12841;DHT22;6487;48.626;12.486;2023-02-15T04:00:00;0.30;99.90
12841;DHT22;6487;48.626;12.486;2023-02-15T04:03:06;0.20;99.90
12841;DHT22;6487;48.626;12.486;2023-02-15T04:05:38;0.30;99.90
12841;DHT22;6487;48.626;12.486;2023-02-15T04:08:08;0.30;99.90
12841;DHT22;6487;48.626;12.486;2023-02-15T04:10:37;0.30;99.90
12841;DHT22;6487;48.626;12.486;2023-02-15T04:13:20;0.50;99.90
12841;DHT22;6487;48.626;12.486;2023-02-15T04:15:49;0.20;99.90
12841;DHT22;6487;48.626;12.486;2023-02-15T04:18:35;0.30;99.90
12841;DHT22;6487;48.626;12.486;2023-02-15T04:21:23;0.30;99.90
12841;DHT22;6487;48.626;12.486;2023-02-15T04:24:11;0.40;99.90
12841;DHT22;6487;48.626;12.486;2023-02-15T04:26:58;0.40;99.90
12841;DHT22;6487;48.626;12.486;2023-02-15T04:29:28;0.30;99.90
12841;DHT22;6487;48.626;12.486;2023-02-15T04:31:58;0.40;99.90
12841;DHT22;6487;48.626;12.486;2023-02-15T04:34:29;0.20;99.90
12841;DHT22;6487;48.626;12.486;2023-02-15T04:36:57;0.20;99.90
12841;DHT22;6487;48.626;12.486;2023-02-15T04:39:27;0.20;99.90
12841;DHT22;6487;48.626;12.486;2023-02-15T04:41:55;0.30;99.90
12841;DHT22;6487;48.626;12.486;2023-02-15T04:44:24;0.20;99.90
12841;DHT22;6487;48.626;12.486;2023-02-15T04:46:52;0.20;99.90
12841;DHT22;6487;48.626;12.486;2023-02-15T04:49:21;0.20;99.90
12841;DHT22;6487;48.626;12.486;2023-02-15T04:51:49;0.20;99.90
12841;DHT22;6487;48.626;12.486;2023-02-15T04:54:18;0.20;99.90
12841;DHT22;6487;48.626;12.486;2023-02-15T04:56:47;0.30;99.90
12841;DHT22;6487;48.626;12.486;2023-02-15T04:59:15;0.20;99.90
12841;DHT22;6487;48.626;12.486;2023-02-15T05:01:44;0.20;99.90
12841;DHT22;6487;48.626;12.486;2023-02-15T05:04:12;0.10;99.90
12841;DHT22;6487;48.626;12.486;2023-02-15T05:06:40;0.00;99.90
12841;DHT22;6487;48.626;12.486;2023-02-15T05:09:12;-0.10;99.90
12841;DHT22;6487;48.626;12.486;2023-02-15T05:11:40;-0.20;99.90
12841;DHT22;6487;48.626;12.486;2023-02-15T05:14:10;-0.30;99.90
12841;DHT22;6487;48.626;12.486;2023-02-15T05:16:38;-0.30;99.90
12841;DHT22;6487;48.626;12.486;2023-02-15T05:19:07;-0.50;99.90
12841;DHT22;6487;48.626;12.486;2023-02-15T05:21:35;-0.60;99.90
12841;DHT22;6487;48.626;12.486;2023-02-15T05:24:04;-0.50;99.90
12841;DHT22;6487;48.626;12.486;2023-02-15T05:26:54;-0.40;99.90
12841;DHT22;6487;48.626;12.486;2023-02-15T05:29:37;-0.50;99.90
12841;DHT22;6487;48.626;12.486;2023-02-15T05:32:05;-0.60;99.90
12841;DHT22;6487;48.626;12.486;2023-02-15T05:34:34;-0.60;99.90
12841;DHT22;6487;48.626;12.486;2023-02-15T05:37:02;-0.80;99.90
12841;DHT22;6487;48.626;12.486;2023-02-15T05:39:30;-0.80;99.90
12841;DHT22;6487;48.626;12.486;2023-02-15T05:41:59;-0.60;99.90
12841;DHT22;6487;48.626;12.486;2023-02-15T05:44:27;-0.60;99.90
12841;DHT22;6487;48.626;12.486;2023-02-15T05:46:57;-0.70;99.90
12841;DHT22;6487;48.626;12.486;2023-02-15T05:49:25;-0.60;99.90
12841;DHT22;6487;48.626;12.486;2023-02-15T05:51:54;-0.60;99.90
12841;DHT22;6487;48.626;12.486;2023-02-15T05:54:22;-0.70;99.90
12841;DHT22;6487;48.626;12.486;2023-02-15T05:56:50;-0.80;99.90
12841;DHT22;6487;48.626;12.486;2023-02-15T05:59:18;-0.70;99.90
12841;DHT22;6487;48.626;12.486;2023-02-15T06:01:47;-0.60;99.90
12841;DHT22;6487;48.626;12.486;2023-02-15T06:04:16;-0.50;99.90
12841;DHT22;6487;48.626;12.486;2023-02-15T06:06:45;-0.50;99.90
12841;DHT22;6487;48.626;12.486;2023-02-15T06:09:13;-0.50;99.90
12841;DHT22;6487;48.626;12.486;2023-02-15T06:11:45;-0.40;99.90
12841;DHT22;6487;48.626;12.486;2023-02-15T06:14:13;-0.30;99.90
12841;DHT22;6487;48.626;12.486;2023-02-15T06:16:41;-0.30;99.90
12841;DHT22;6487;48.626;12.486;2023-02-15T06:19:09;-0.20;99.90
12841;DHT22;6487;48.626;12.486;2023-02-15T06:21:39;-0.20;99.90
12841;DHT22;6487;48.626;12.486;2023-02-15T06:24:08;-0.20;99.90
12841;DHT22;6487;48.626;12.486;2023-02-15T06:26:36;-0.20;99.90
12841;DHT22;6487;48.626;12.486;2023-02-15T06:29:05;-0.20;99.90
12841;DHT22;6487;48.626;12.486;2023-02-15T06:31:33;-0.20;99.90
12841;DHT22;6487;48.626;12.486;2023-02-15T06:34:01;-0.20;99.90
12841;DHT22;6487;48.626;12.486;2023-02-15T06:36:30;-0.10;99.90
12841;DHT22;6487;48.626;12.486;2023-02-15T06:39:00;-0.10;99.90
12841;DHT22;6487;48.626;12.486;2023-02-15T06:41:30;-0.40;99.90
12841;DHT22;6487;48.626;12.486;2023-02-15T06:43:58;-0.40;99.90
12841;DHT22;6487;48.626;12.486;2023-02-15T06:46:26;-0.40;99.90
12841;DHT22;6487;48.626;12.486;2023-02-15T06:48:55;-0.30;99.90
12841;DHT22;6487;48.626;12.486;2023-02-15T06:51:23;-0.40;99.90
12841;DHT22;6487;48.626;12.486;2023-02-15T06:53:51;-0.30;99.90
12841;DHT22;6487;48.626;12.486;2023-02-15T06:56:21;-0.20;99.90
12841;DHT22;6487;48.626;12.486;2023-02-15T06:58:49;-0.30;99.90
12841;DHT22;6487;48.626;12.486;2023-02-15T07:01:19;-0.30;99.90
12841;DHT22;6487;48.626;12.486;2023-02-15T07:03:47;-0.30;99.90
12841;DHT22;6487;48.626;12.486;2023-02-15T07:06:15;-0.30;99.90
12841;DHT22;6487;48.626;12.486;2023-02-15T07:08:44;-0.30;99.90
12841;DHT22;6487;48.626;12.486;2023-02-15T07:11:12;-0.30;99.90
12841;DHT22;6487;48.626;12.486;2023-02-15T07:13:59;-0.20;99.90
12841;DHT22;6487;48.626;12.486;2023-02-15T07:16:27;-0.20;99.90
12841;DHT22;6487;48.626;12.486;2023-02-15T07:18:56;-0.20;99.90
12841;DHT22;6487;48.626;12.486;2023-02-15T07:21:24;-0.10;99.90
12841;DHT22;6487;48.626;12.486;2023-02-15T07:23:56;-0.10;99.90
12841;DHT22;6487;48.626;12.486;2023-02-15T07:26:24;-0.30;99.90
12841;DHT22;6487;48.626;12.486;2023-02-15T07:28:53;-0.20;99.90
12841;DHT22;6487;48.626;12.486;2023-02-15T07:31:22;-0.20;99.90
12841;DHT22;6487;48.626;12.486;2023-02-15T07:33:51;-0.20;99.90
12841;DHT22;6487;48.626;12.486;2023-02-15T07:36:19;-0.10;99.90
12841;DHT22;6487;48.626;12.486;2023-02-15T07:38:47;-0.20;99.90
12841;DHT22;6487;48.626;12.486;2023-02-15T07:41:15;-0.20;99.90
12841;DHT22;6487;48.626;12.486;2023-02-15T07:43:45;-0.10;99.90
12841;DHT22;6487;48.626;12.486;2023-02-15T07:46:14;-0.40;99.90
12841;DHT22;6487;48.626;12.486;2023-02-15T07:48:46;-0.40;99.90
12841;DHT22;6487;48.626;12.486;2023-02-15T07:51:14;-0.40;99.90
12841;DHT22;6487;48.626;12.486;2023-02-15T07:53:42;-0.50;99.90
12841;DHT22;6487;48.626;12.486;2023-02-15T07:56:12;-0.50;99.90
12841;DHT22;6487;48.626;12.486;2023-02-15T07:58:41;-0.50;99.90
12841;DHT22;6487;48.626;12.486;2023-02-15T08:05:25;-0.60;99.90
12841;DHT22;6487;48.626;12.486;2023-02-15T08:07:53;-0.60;99.90
12841;DHT22;6487;48.626;12.486;2023-02-15T08:10:21;-0.50;99.90
12841;DHT22;6487;48.626;12.486;2023-02-15T08:13:10;-0.30;99.90
12841;DHT22;6487;48.626;12.486;2023-02-15T08:15:38;-0.20;99.90
12841;DHT22;6487;48.626;12.486;2023-02-15T08:18:06;-0.20;99.90
12841;DHT22;6487;48.626;12.486;2023-02-15T08:20:36;-0.10;99.90
12841;DHT22;6487;48.626;12.486;2023-02-15T08:23:04;-0.30;99.90
12841;DHT22;6487;48.626;12.486;2023-02-15T08:25:32;-0.30;99.90
12841;DHT22;6487;48.626;12.486;2023-02-15T08:28:01;-0.10;99.90
12841;DHT22;6487;48.626;12.486;2023-02-15T08:30:29;-0.20;99.90
12841;DHT22;6487;48.626;12.486;2023-02-15T08:33:00;-0.40;99.90
12841;DHT22;6487;48.626;12.486;2023-02-15T08:35:29;-0.50;99.90
12841;DHT22;6487;48.626;12.486;2023-02-15T08:37:58;-0.30;99.90
12841;DHT22;6487;48.626;12.486;2023-02-15T08:40:26;-0.40;99.90
12841;DHT22;6487;48.626;12.486;2023-02-15T08:42:55;-0.40;99.90
12841;DHT22;6487;48.626;12.486;2023-02-15T08:45:23;-0.60;99.90
12841;DHT22;6487;48.626;12.486;2023-02-15T08:47:52;-0.40;99.90
12841;DHT22;6487;48.626;12.486;2023-02-15T08:50:21;-0.30;99.90
12841;DHT22;6487;48.626;12.486;2023-02-15T08:52:49;-0.20;99.90
12841;DHT22;6487;48.626;12.486;2023-02-15T08:55:19;-0.20;99.90
12841;DHT22;6487;48.626;12.486;2023-02-15T08:57:47;-0.20;99.90
12841;DHT22;6487;48.626;12.486;2023-02-15T09:00:16;-0.40;99.90
12841;DHT22;6487;48.626;12.486;2023-02-15T09:02:45;-0.30;99.90
12841;DHT22;6487;48.626;12.486;2023-02-15T09:05:13;-0.30;99.90
12841;DHT22;6487;48.626;12.486;2023-02-15T09:07:42;-0.30;99.90
12841;DHT22;6487;48.626;12.486;2023-02-15T09:10:10;-0.20;99.90
12841;DHT22;6487;48.626;12.486;2023-02-15T09:12:40;-0.10;99.90
12841;DHT22;6487;48.626;12.486;2023-02-15T09:15:08;-0.20;99.90
12841;DHT22;6487;48.626;12.486;2023-02-15T09:17:37;-0.30;99.90
12841;DHT22;6487;48.626;12.486;2023-02-15T09:20:06;-0.30;99.90
12841;DHT22;6487;48.626;12.486;2023-02-15T09:22:35;-0.10;99.90
12841;DHT22;6487;48.626;12.486;2023-02-15T09:25:04;-0.10;99.90
12841;DHT22;6487;48.626;12.486;2023-02-15T09:27:33;-0.30;99.90
12841;DHT22;6487;48.626;12.486;2023-02-15T09:30:02;-0.30;99.90
12841;DHT22;6487;48.626;12.486;2023-02-15T09:32:31;-0.40;99.90
12841;DHT22;6487;48.626;12.486;2023-02-15T09:34:59;-0.30;99.90
12841;DHT22;6487;48.626;12.486;2023-02-15T09:37:29;-0.30;99.90
12841;DHT22;6487;48.626;12.486;2023-02-15T09:39:58;-0.30;99.90
12841;DHT22;6487;48.626;12.486;2023-02-15T09:42:48;-0.20;99.90
12841;DHT22;6487;48.626;12.486;2023-02-15T09:45:32;-0.10;99.90
12841;DHT22;6487;48.626;12.486;2023-02-15T09:48:36;-0.10;99.90
12841;DHT22;6487;48.626;12.486;2023-02-15T09:51:21;0.00;99.90
12841;DHT22;6487;48.626;12.486;2023-02-15T09:54:09;-0.10;99.90
12841;DHT22;6487;48.626;12.486;2023-02-15T09:56:48;0.00;99.90
12841;DHT22;6487;48.626;12.486;2023-02-15T09:59:26;0.00;99.90
12841;DHT22;6487;48.626;12.486;2023-02-15T10:02:09;0.00;99.90
12841;DHT22;6487;48.626;12.486;2023-02-15T10:04:56;0.10;99.90
12841;DHT22;6487;48.626;12.486;2023-02-15T10:07:40;0.20;99.90
12841;DHT22;6487;48.626;12.486;2023-02-15T10:10:26;0.10;99.90
12841;DHT22;6487;48.626;12.486;2023-02-15T10:13:13;0.10;99.90
12841;DHT22;6487;48.626;12.486;2023-02-15T10:15:56;0.30;99.90
12841;DHT22;6487;48.626;12.486;2023-02-15T10:18:58;0.30;99.90
12841;DHT22;6487;48.626;12.486;2023-02-15T10:21:40;0.40;99.90
12841;DHT22;6487;48.626;12.486;2023-02-15T10:24:44;0.20;99.90
12841;DHT22;6487;48.626;12.486;2023-02-15T10:27:22;0.30;99.90
12841;DHT22;6487;48.626;12.486;2023-02-15T10:30:00;0.30;99.90
12841;DHT22;6487;48.626;12.486;2023-02-15T10:32:38;0.30;99.90
12841;DHT22;6487;48.626;12.486;2023-02-15T10:35:22;0.40;99.90
12841;DHT22;6487;48.626;12.486;2023-02-15T10:38:03;0.20;99.90
12841;DHT22;6487;48.626;12.486;2023-02-15T10:40:45;0.00;99.90
12841;DHT22;6487;48.626;12.486;2023-02-15T10:43:35;0.10;99.90
12841;DHT22;6487;48.626;12.486;2023-02-15T10:46:26;0.30;99.90
12841;DHT22;6487;48.626;12.486;2023-02-15T10:49:26;0.20;99.90
12841;DHT22;6487;48.626;12.486;2023-02-15T10:52:17;0.20;99.90
12841;DHT22;6487;48.626;12.486;2023-02-15T10:55:02;0.30;99.90
12841;DHT22;6487;48.626;12.486;2023-02-15T10:57:46;0.30;99.90
12841;DHT22;6487;48.626;12.486;2023-02-15T11:00:23;0.30;99.90
12841;DHT22;6487;48.626;12.486;2023-02-15T11:03:10;0.50;99.90
12841;DHT22;6487;48.626;12.486;2023-02-15T11:05:50;0.20;99.90
12841;DHT22;6487;48.626;12.486;2023-02-15T11:08:29;0.30;99.90
12841;DHT22;6487;48.626;12.486;2023-02-15T11:11:02;0.30;99.90
12841;DHT22;6487;48.626;12.486;2023-02-15T11:13:36;0.40;99.90
12841;DHT22;6487;48.626;12.486;2023-02-15T11:16:12;0.30;99.90
12841;DHT22;6487;48.626;12.486;2023-02-15T11:18:49;0.30;99.90
12841;DHT22;6487;48.626;12.486;2023-02-15T11:21:22;0.40;99.90
12841;DHT22;6487;48.626;12.486;2023-02-15T11:23:52;0.50;99.90
12841;DHT22;6487;48.626;12.486;2023-02-15T11:26:26;0.50;99.90
12841;DHT22;6487;48.626;12.486;2023-02-15T11:28:59;0.50;99.90
12841;DHT22;6487;48.626;12.486;2023-02-15T11:31:39;0.30;99.90
12841;DHT22;6487;48.626;12.486;2023-02-15T11:34:15;0.40;99.90
12841;DHT22;6487;48.626;12.486;2023-02-15T11:36:47;0.40;99.90
12841;DHT22;6487;48.626;12.486;2023-02-15T11:39:20;0.50;99.90
12841;DHT22;6487;48.626;12.486;2023-02-15T11:41:52;0.30;99.90
12841;DHT22;6487;48.626;12.486;2023-02-15T11:44:24;0.50;99.90
12841;DHT22;6487;48.626;12.486;2023-02-15T11:46:56;0.70;99.90
12841;DHT22;6487;48.626;12.486;2023-02-15T11:49:27;0.60;99.90
12841;DHT22;6487;48.626;12.486;2023-02-15T11:52:00;0.80;99.90
12841;DHT22;6487;48.626;12.486;2023-02-15T11:54:34;0.90;99.90
12841;DHT22;6487;48.626;12.486;2023-02-15T11:57:12;0.90;99.90
12841;DHT22;6487;48.626;12.486;2023-02-15T11:59:46;0.90;99.90
12841;DHT22;6487;48.626;12.486;2023-02-15T12:02:19;0.90;99.90
12841;DHT22;6487;48.626;12.486;2023-02-15T12:04:52;1.00;99.90
12841;DHT22;6487;48.626;12.486;2023-02-15T12:07:24;1.00;99.90
12841;DHT22;6487;48.626;12.486;2023-02-15T12:10:00;1.10;99.90
12841;DHT22;6487;48.626;12.486;2023-02-15T12:12:35;1.00;99.90
12841;DHT22;6487;48.626;12.486;2023-02-15T12:15:04;1.10;99.90
12841;DHT22;6487;48.626;12.486;2023-02-15T12:17:38;1.10;99.90
12841;DHT22;6487;48.626;12.486;2023-02-15T12:20:24;1.20;99.90
12841;DHT22;6487;48.626;12.486;2023-02-15T12:23:00;1.30;99.90
12841;DHT22;6487;48.626;12.486;2023-02-15T12:25:36;1.40;99.90
12841;DHT22;6487;48.626;12.486;2023-02-15T12:28:22;1.40;99.90
12841;DHT22;6487;48.626;12.486;2023-02-15T12:30:53;1.50;99.90
12841;DHT22;6487;48.626;12.486;2023-02-15T12:33:27;1.40;99.90
12841;DHT22;6487;48.626;12.486;2023-02-15T12:36:00;1.40;99.90
12841;DHT22;6487;48.626;12.486;2023-02-15T12:38:30;1.40;99.90
12841;DHT22;6487;48.626;12.486;2023-02-15T12:41:04;1.50;99.90
12841;DHT22;6487;48.626;12.486;2023-02-15T12:43:35;1.40;99.90
12841;DHT22;6487;48.626;12.486;2023-02-15T12:46:20;1.50;99.90
12841;DHT22;6487;48.626;12.486;2023-02-15T12:49:06;1.50;99.90
12841;DHT22;6487;48.626;12.486;2023-02-15T12:51:43;1.60;99.90
12841;DHT22;6487;48.626;12.486;2023-02-15T12:54:20;1.70;99.90
12841;DHT22;6487;48.626;12.486;2023-02-15T12:56:58;1.50;99.90
12841;DHT22;6487;48.626;12.486;2023-02-15T12:59:26;1.50;99.90
12841;DHT22;6487;48.626;12.486;2023-02-15T13:01:55;1.50;99.90
12841;DHT22;6487;48.626;12.486;2023-02-15T13:04:26;1.70;99.90
12841;DHT22;6487;48.626;12.486;2023-02-15T13:06:58;1.60;99.90
12841;DHT22;6487;48.626;12.486;2023-02-15T13:09:37;1.50;99.90
12841;DHT22;6487;48.626;12.486;2023-02-15T13:12:17;1.60;99.90
12841;DHT22;6487;48.626;12.486;2023-02-15T13:14:49;1.50;99.90
12841;DHT22;6487;48.626;12.486;2023-02-15T13:17:23;1.30;99.90
12841;DHT22;6487;48.626;12.486;2023-02-15T13:19:59;1.20;99.90
12841;DHT22;6487;48.626;12.486;2023-02-15T13:22:35;1.30;99.90
12841;DHT22;6487;48.626;12.486;2023-02-15T13:25:13;1.30;99.90
12841;DHT22;6487;48.626;12.486;2023-02-15T13:27:44;1.50;99.90
12841;DHT22;6487;48.626;12.486;2023-02-15T13:30:25;1.60;99.90
12841;DHT22;6487;48.626;12.486;2023-02-15T13:32:59;1.60;99.90
12841;DHT22;6487;48.626;12.486;2023-02-15T13:35:38;1.70;99.90
12841;DHT22;6487;48.626;12.486;2023-02-15T13:38:34;1.70;99.90
12841;DHT22;6487;48.626;12.486;2023-02-15T13:41:15;1.90;99.90
12841;DHT22;6487;48.626;12.486;2023-02-15T13:43:53;1.80;99.90
12841;DHT22;6487;48.626;12.486;2023-02-15T13:46:38;1.90;99.90
12841;DHT22;6487;48.626;12.486;2023-02-15T13:49:21;1.90;99.90
12841;DHT22;6487;48.626;12.486;2023-02-15T13:52:16;1.90;99.90
12841;DHT22;6487;48.626;12.486;2023-02-15T13:55:16;1.70;99.90
12841;DHT22;6487;48.626;12.486;2023-02-15T13:58:18;1.70;99.90
12841;DHT22;6487;48.626;12.486;2023-02-15T14:01:09;1.80;99.90
12841;DHT22;6487;48.626;12.486;2023-02-15T14:04:00;2.00;99.90
12841;DHT22;6487;48.626;12.486;2023-02-15T14:07:00;1.70;99.90
12841;DHT22;6487;48.626;12.486;2023-02-15T14:09:43;1.50;99.90
12841;DHT22;6487;48.626;12.486;2023-02-15T14:12:39;1.80;99.90
12841;DHT22;6487;48.626;12.486;2023-02-15T14:15:21;1.60;99.90
12841;DHT22;6487;48.626;12.486;2023-02-15T14:18:04;1.40;99.90
12841;DHT22;6487;48.626;12.486;2023-02-15T14:20:50;1.60;99.90
12841;DHT22;6487;48.626;12.486;2023-02-15T14:23:32;1.70;99.90
12841;DHT22;6487;48.626;12.486;2023-02-15T14:26:11;1.70;99.90
12841;DHT22;6487;48.626;12.486;2023-02-15T14:28:50;1.70;99.90
12841;DHT22;6487;48.626;12.486;2023-02-15T14:31:27;1.80;99.90
12841;DHT22;6487;48.626;12.486;2023-02-15T14:33:59;1.90;99.90
12841;DHT22;6487;48.626;12.486;2023-02-15T14:36:29;2.00;99.90
12841;DHT22;6487;48.626;12.486;2023-02-15T14:39:08;2.00;99.90
12841;DHT22;6487;48.626;12.486;2023-02-15T14:42:01;2.00;99.90
12841;DHT22;6487;48.626;12.486;2023-02-15T14:44:36;2.20;99.90
12841;DHT22;6487;48.626;12.486;2023-02-15T14:47:10;2.00;99.90
12841;DHT22;6487;48.626;12.486;2023-02-15T14:49:45;1.90;99.90
12841;DHT22;6487;48.626;12.486;2023-02-15T14:52:13;2.00;99.90
12841;DHT22;6487;48.626;12.486;2023-02-15T14:54:59;2.20;99.90
12841;DHT22;6487;48.626;12.486;2023-02-15T14:57:30;2.10;99.90
12841;DHT22;6487;48.626;12.486;2023-02-15T15:00:33;2.10;99.90
12841;DHT22;6487;48.626;12.486;2023-02-15T15:03:16;2.10;99.90
12841;DHT22;6487;48.626;12.486;2023-02-15T15:05:52;2.20;99.90
12841;DHT22;6487;48.626;12.486;2023-02-15T15:08:34;2.10;99.90
12841;DHT22;6487;48.626;12.486;2023-02-15T15:11:37;2.20;99.90
12841;DHT22;6487;48.626;12.486;2023-02-15T15:14:13;2.30;99.90
12841;DHT22;6487;48.626;12.486;2023-02-15T15:17:09;2.40;99.90
12841;DHT22;6487;48.626;12.486;2023-02-15T15:20:05;2.20;99.90
12841;DHT22;6487;48.626;12.486;2023-02-15T15:22:42;2.20;99.90
12841;DHT22;6487;48.626;12.486;2023-02-15T15:28:08;2.10;99.90
12841;DHT22;6487;48.626;12.486;2023-02-15T15:31:02;2.10;99.90
12841;DHT22;6487;48.626;12.486;2023-02-15T15:34:19;2.10;99.90
12841;DHT22;6487;48.626;12.486;2023-02-15T15:47:26;1.90;99.90
12841;DHT22;6487;48.626;12.486;2023-02-15T15:50:10;1.90;99.90
12841;DHT22;6487;48.626;12.486;2023-02-15T15:52:41;1.90;99.90
12841;DHT22;6487;48.626;12.486;2023-02-15T15:55:16;2.00;99.90
12841;DHT22;6487;48.626;12.486;2023-02-15T15:57:50;2.00;99.90
12841;DHT22;6487;48.626;12.486;2023-02-15T16:00:33;1.90;99.90
12841;DHT22;6487;48.626;12.486;2023-02-15T16:03:03;1.90;99.90
12841;DHT22;6487;48.626;12.486;2023-02-15T16:05:36;1.90;99.90
12841;DHT22;6487;48.626;12.486;2023-02-15T16:08:05;1.90;99.90
12841;DHT22;6487;48.626;12.486;2023-02-15T16:10:35;1.80;99.90
12841;DHT22;6487;48.626;12.486;2023-02-15T16:13:06;1.80;99.90
12841;DHT22;6487;48.626;12.486;2023-02-15T16:15:37;1.90;99.90
12841;DHT22;6487;48.626;12.486;2023-02-15T16:18:14;1.90;99.90
12841;DHT22;6487;48.626;12.486;2023-02-15T16:20:50;2.00;99.90
12841;DHT22;6487;48.626;12.486;2023-02-15T16:26:44;1.70;99.90
12841;DHT22;6487;48.626;12.486;2023-02-15T16:29:31;1.50;99.90
12841;DHT22;6487;48.626;12.486;2023-02-15T16:32:01;1.30;99.90
12841;DHT22;6487;48.626;12.486;2023-02-15T16:34:32;1.10;99.90
12841;DHT22;6487;48.626;12.486;2023-02-15T16:37:14;1.00;99.90
12841;DHT22;6487;48.626;12.486;2023-02-15T16:39:44;1.10;99.90
12841;DHT22;6487;48.626;12.486;2023-02-15T16:42:15;1.30;99.90
12841;DHT22;6487;48.626;12.486;2023-02-15T16:44:49;1.00;99.90
12841;DHT22;6487;48.626;12.486;2023-02-15T16:47:22;1.10;99.90
12841;DHT22;6487;48.626;12.486;2023-02-15T16:49:55;1.20;99.90
12841;DHT22;6487;48.626;12.486;2023-02-15T16:52:26;1.40;99.90
12841;DHT22;6487;48.626;12.486;2023-02-15T16:54:57;1.30;99.90